sensor_id;sensor_type;location;lat;lon;timestamp;P1;durP1;ratioP1;P2;durP2;ratioP2
42702;SDS011;28341;52.064;4.920;2022-08-19T00:01:52;18.95;;;16.95;;
42702;SDS011;28341;52.064;4.920;2022-08-19T00:03:58;22.23;;;19.95;;
42702;SDS011;28341;52.064;4.920;2022-08-19T00:06:06;22.85;;;20.55;;
42702;SDS011;28341;52.064;4.920;2022-08-19T00:08:11;20.20;;;18.08;;
42702;SDS011;28341;52.064;4.920;2022-08-19T00:10:15;12.60;;;11.40;;
42702;SDS011;28341;52.064;4.920;2022-08-19T00:12:24;9.48;;;8.57;;
42702;SDS011;28341;52.064;4.920;2022-08-19T00:14:29;8.93;;;8.13;;
42702;SDS011;28341;52.064;4.920;2022-08-19T00:16:34;9.80;;;8.90;;
42702;SDS011;28341;52.064;4.920;2022-08-19T00:18:39;10.88;;;9.77;;
42702;SDS011;28341;52.064;4.920;2022-08-19T00:20:43;11.57;;;10.48;;
42702;SDS011;28341;52.064;4.920;2022-08-19T00:22:48;11.93;;;10.73;;
42702;SDS011;28341;52.064;4.920;2022-08-19T00:24:53;15.65;;;12.75;;
42702;SDS011;28341;52.064;4.920;2022-08-19T00:26:57;16.42;;;14.75;;
42702;SDS011;28341;52.064;4.920;2022-08-19T00:29:06;18.45;;;15.63;;
42702;SDS011;28341;52.064;4.920;2022-08-19T00:31:12;17.85;;;16.05;;
42702;SDS011;28341;52.064;4.920;2022-08-19T00:33:16;19.30;;;16.83;;
42702;SDS011;28341;52.064;4.920;2022-08-19T00:35:21;20.80;;;18.35;;
42702;SDS011;28341;52.064;4.920;2022-08-19T00:37:27;17.05;;;15.43;;
42702;SDS011;28341;52.064;4.920;2022-08-19T00:39:33;18.92;;;16.02;;
42702;SDS011;28341;52.064;4.920;2022-08-19T00:41:38;18.00;;;15.48;;
42702;SDS011;28341;52.064;4.920;2022-08-19T00:43:43;17.10;;;15.45;;
42702;SDS011;28341;52.064;4.920;2022-08-19T00:46:04;18.75;;;16.50;;
42702;SDS011;28341;52.064;4.920;2022-08-19T00:48:09;20.27;;;15.73;;
42702;SDS011;28341;52.064;4.920;2022-08-19T00:50:14;18.63;;;16.10;;
42702;SDS011;28341;52.064;4.920;2022-08-19T00:52:25;15.77;;;14.23;;
42702;SDS011;28341;52.064;4.920;2022-08-19T00:54:31;20.30;;;17.20;;
42702;SDS011;28341;52.064;4.920;2022-08-19T00:56:36;24.75;;;19.25;;
42702;SDS011;28341;52.064;4.920;2022-08-19T00:58:41;22.92;;;20.45;;
42702;SDS011;28341;52.064;4.920;2022-08-19T01:00:45;26.30;;;21.65;;
42702;SDS011;28341;52.064;4.920;2022-08-19T01:02:53;30.77;;;27.02;;
42702;SDS011;28341;52.064;4.920;2022-08-19T01:04:57;26.25;;;23.40;;
42702;SDS011;28341;52.064;4.920;2022-08-19T01:07:03;26.80;;;23.52;;
42702;SDS011;28341;52.064;4.920;2022-08-19T01:09:08;24.15;;;21.60;;
42702;SDS011;28341;52.064;4.920;2022-08-19T01:11:12;25.38;;;22.25;;
42702;SDS011;28341;52.064;4.920;2022-08-19T01:13:17;25.85;;;23.23;;
42702;SDS011;28341;52.064;4.920;2022-08-19T01:15:26;25.33;;;22.65;;
42702;SDS011;28341;52.064;4.920;2022-08-19T01:17:34;26.52;;;22.63;;
42702;SDS011;28341;52.064;4.920;2022-08-19T01:19:43;24.45;;;21.75;;
42702;SDS011;28341;52.064;4.920;2022-08-19T01:21:49;23.42;;;20.48;;
42702;SDS011;28341;52.064;4.920;2022-08-19T01:24:01;24.92;;;22.35;;
42702;SDS011;28341;52.064;4.920;2022-08-19T01:26:06;22.45;;;19.88;;
42702;SDS011;28341;52.064;4.920;2022-08-19T01:28:14;19.77;;;17.77;;
42702;SDS011;28341;52.064;4.920;2022-08-19T01:30:21;22.10;;;19.33;;
42702;SDS011;28341;52.064;4.920;2022-08-19T01:32:28;24.20;;;20.98;;
42702;SDS011;28341;52.064;4.920;2022-08-19T01:34:33;19.23;;;17.23;;
42702;SDS011;28341;52.064;4.920;2022-08-19T01:36:40;17.58;;;15.73;;
42702;SDS011;28341;52.064;4.920;2022-08-19T01:38:47;22.15;;;18.88;;
42702;SDS011;28341;52.064;4.920;2022-08-19T01:40:55;18.33;;;16.42;;
42702;SDS011;28341;52.064;4.920;2022-08-19T01:43:00;17.75;;;15.85;;
42702;SDS011;28341;52.064;4.920;2022-08-19T01:45:06;18.02;;;16.13;;
42702;SDS011;28341;52.064;4.920;2022-08-19T01:47:12;18.92;;;16.77;;
42702;SDS011;28341;52.064;4.920;2022-08-19T01:49:16;16.35;;;14.65;;
42702;SDS011;28341;52.064;4.920;2022-08-19T01:51:22;14.27;;;12.77;;
42702;SDS011;28341;52.064;4.920;2022-08-19T01:53:27;13.35;;;11.70;;
42702;SDS011;28341;52.064;4.920;2022-08-19T01:55:32;13.40;;;11.48;;
42702;SDS011;28341;52.064;4.920;2022-08-19T01:57:40;16.73;;;13.68;;
42702;SDS011;28341;52.064;4.920;2022-08-19T01:59:49;14.20;;;12.70;;
42702;SDS011;28341;52.064;4.920;2022-08-19T02:01:54;17.20;;;15.23;;
42702;SDS011;28341;52.064;4.920;2022-08-19T02:03:58;18.25;;;16.13;;
42702;SDS011;28341;52.064;4.920;2022-08-19T02:06:03;22.55;;;17.35;;
42702;SDS011;28341;52.064;4.920;2022-08-19T02:08:09;20.85;;;15.60;;
42702;SDS011;28341;52.064;4.920;2022-08-19T02:10:14;20.25;;;15.77;;
42702;SDS011;28341;52.064;4.920;2022-08-19T02:12:21;25.95;;;19.45;;
42702;SDS011;28341;52.064;4.920;2022-08-19T02:14:28;21.33;;;16.00;;
42702;SDS011;28341;52.064;4.920;2022-08-19T02:16:33;24.13;;;18.77;;
42702;SDS011;28341;52.064;4.920;2022-08-19T02:18:40;20.77;;;16.40;;
42702;SDS011;28341;52.064;4.920;2022-08-19T02:20:44;17.83;;;14.60;;
42702;SDS011;28341;52.064;4.920;2022-08-19T02:22:50;36.47;;;26.77;;
42702;SDS011;28341;52.064;4.920;2022-08-19T02:24:54;35.60;;;26.63;;
42702;SDS011;28341;52.064;4.920;2022-08-19T02:26:59;38.50;;;26.77;;
42702;SDS011;28341;52.064;4.920;2022-08-19T02:29:03;37.33;;;27.73;;
42702;SDS011;28341;52.064;4.920;2022-08-19T02:31:11;35.50;;;25.60;;
42702;SDS011;28341;52.064;4.920;2022-08-19T02:33:18;35.55;;;26.60;;
42702;SDS011;28341;52.064;4.920;2022-08-19T02:35:22;38.92;;;26.38;;
42702;SDS011;28341;52.064;4.920;2022-08-19T02:37:27;31.35;;;24.08;;
42702;SDS011;28341;52.064;4.920;2022-08-19T02:39:43;23.25;;;17.95;;
42702;SDS011;28341;52.064;4.920;2022-08-19T02:41:48;16.33;;;12.55;;
42702;SDS011;28341;52.064;4.920;2022-08-19T02:43:52;13.48;;;10.15;;
42702;SDS011;28341;52.064;4.920;2022-08-19T02:45:58;14.85;;;10.60;;
42702;SDS011;28341;52.064;4.920;2022-08-19T02:48:05;12.68;;;9.98;;
42702;SDS011;28341;52.064;4.920;2022-08-19T02:50:09;9.77;;;8.73;;
42702;SDS011;28341;52.064;4.920;2022-08-19T02:52:14;13.18;;;9.68;;
42702;SDS011;28341;52.064;4.920;2022-08-19T02:54:19;22.48;;;14.70;;
42702;SDS011;28341;52.064;4.920;2022-08-19T02:56:23;19.42;;;14.65;;
42702;SDS011;28341;52.064;4.920;2022-08-19T02:58:28;17.60;;;14.27;;
42702;SDS011;28341;52.064;4.920;2022-08-19T03:00:33;19.13;;;14.23;;
42702;SDS011;28341;52.064;4.920;2022-08-19T03:02:37;18.48;;;13.93;;
42702;SDS011;28341;52.064;4.920;2022-08-19T03:04:44;23.38;;;16.80;;
42702;SDS011;28341;52.064;4.920;2022-08-19T03:06:49;21.48;;;16.02;;
42702;SDS011;28341;52.064;4.920;2022-08-19T03:08:54;24.20;;;18.08;;
42702;SDS011;28341;52.064;4.920;2022-08-19T03:10:59;27.20;;;19.67;;
42702;SDS011;28341;52.064;4.920;2022-08-19T03:13:03;28.08;;;19.70;;
42702;SDS011;28341;52.064;4.920;2022-08-19T03:15:09;25.77;;;21.05;;
42702;SDS011;28341;52.064;4.920;2022-08-19T03:17:13;27.23;;;20.77;;
42702;SDS011;28341;52.064;4.920;2022-08-19T03:19:18;28.48;;;23.00;;
42702;SDS011;28341;52.064;4.920;2022-08-19T03:21:27;30.77;;;22.17;;
42702;SDS011;28341;52.064;4.920;2022-08-19T03:23:35;27.77;;;21.20;;
42702;SDS011;28341;52.064;4.920;2022-08-19T03:25:42;24.70;;;18.75;;
42702;SDS011;28341;52.064;4.920;2022-08-19T03:27:50;22.42;;;17.38;;
42702;SDS011;28341;52.064;4.920;2022-08-19T03:29:54;22.95;;;17.17;;
42702;SDS011;28341;52.064;4.920;2022-08-19T03:32:00;20.30;;;15.90;;
42702;SDS011;28341;52.064;4.920;2022-08-19T03:34:07;22.70;;;15.98;;
42702;SDS011;28341;52.064;4.920;2022-08-19T03:36:13;22.90;;;16.42;;
42702;SDS011;28341;52.064;4.920;2022-08-19T03:38:23;22.60;;;17.10;;
42702;SDS011;28341;52.064;4.920;2022-08-19T03:40:27;19.40;;;16.45;;
42702;SDS011;28341;52.064;4.920;2022-08-19T03:42:32;22.20;;;17.80;;
42702;SDS011;28341;52.064;4.920;2022-08-19T03:44:37;22.95;;;16.25;;
42702;SDS011;28341;52.064;4.920;2022-08-19T03:46:42;23.67;;;18.33;;
42702;SDS011;28341;52.064;4.920;2022-08-19T03:48:47;37.13;;;23.85;;
42702;SDS011;28341;52.064;4.920;2022-08-19T03:50:54;25.10;;;19.83;;
42702;SDS011;28341;52.064;4.920;2022-08-19T03:52:58;23.42;;;17.63;;
42702;SDS011;28341;52.064;4.920;2022-08-19T03:55:06;19.38;;;15.52;;
42702;SDS011;28341;52.064;4.920;2022-08-19T03:57:11;23.48;;;16.38;;
42702;SDS011;28341;52.064;4.920;2022-08-19T03:59:17;18.02;;;15.32;;
42702;SDS011;28341;52.064;4.920;2022-08-19T04:01:26;17.52;;;14.15;;
42702;SDS011;28341;52.064;4.920;2022-08-19T04:03:32;14.50;;;12.05;;
42702;SDS011;28341;52.064;4.920;2022-08-19T04:05:37;17.77;;;13.45;;
42702;SDS011;28341;52.064;4.920;2022-08-19T04:07:41;17.83;;;13.77;;
42702;SDS011;28341;52.064;4.920;2022-08-19T04:09:45;19.92;;;15.55;;
42702;SDS011;28341;52.064;4.920;2022-08-19T04:11:55;20.25;;;15.60;;
42702;SDS011;28341;52.064;4.920;2022-08-19T04:14:00;31.17;;;21.25;;
42702;SDS011;28341;52.064;4.920;2022-08-19T04:16:05;45.13;;;29.35;;
42702;SDS011;28341;52.064;4.920;2022-08-19T04:18:10;46.17;;;32.17;;
42702;SDS011;28341;52.064;4.920;2022-08-19T04:20:15;53.30;;;37.20;;
42702;SDS011;28341;52.064;4.920;2022-08-19T04:22:20;51.00;;;34.97;;
42702;SDS011;28341;52.064;4.920;2022-08-19T04:24:24;50.00;;;35.30;;
42702;SDS011;28341;52.064;4.920;2022-08-19T04:26:29;61.13;;;40.47;;
42702;SDS011;28341;52.064;4.920;2022-08-19T04:28:40;59.28;;;38.95;;
42702;SDS011;28341;52.064;4.920;2022-08-19T04:30:45;69.40;;;43.95;;
42702;SDS011;28341;52.064;4.920;2022-08-19T04:32:51;63.67;;;39.40;;
42702;SDS011;28341;52.064;4.920;2022-08-19T04:34:56;60.95;;;40.03;;
42702;SDS011;28341;52.064;4.920;2022-08-19T04:37:00;61.35;;;40.25;;
42702;SDS011;28341;52.064;4.920;2022-08-19T04:39:07;59.50;;;38.67;;
42702;SDS011;28341;52.064;4.920;2022-08-19T04:41:13;64.72;;;41.17;;
42702;SDS011;28341;52.064;4.920;2022-08-19T04:43:31;65.00;;;42.45;;
42702;SDS011;28341;52.064;4.920;2022-08-19T04:45:39;56.25;;;39.97;;
42702;SDS011;28341;52.064;4.920;2022-08-19T04:47:44;58.25;;;39.25;;
42702;SDS011;28341;52.064;4.920;2022-08-19T04:49:48;62.53;;;41.15;;
42702;SDS011;28341;52.064;4.920;2022-08-19T04:51:53;64.90;;;41.83;;
42702;SDS011;28341;52.064;4.920;2022-08-19T04:53:57;67.85;;;42.85;;
42702;SDS011;28341;52.064;4.920;2022-08-19T04:56:04;79.28;;;47.13;;
42702;SDS011;28341;52.064;4.920;2022-08-19T04:58:11;65.03;;;42.25;;
42702;SDS011;28341;52.064;4.920;2022-08-19T05:00:16;64.35;;;41.88;;
42702;SDS011;28341;52.064;4.920;2022-08-19T05:02:24;60.88;;;41.20;;
42702;SDS011;28341;52.064;4.920;2022-08-19T05:04:29;63.72;;;40.72;;
42702;SDS011;28341;52.064;4.920;2022-08-19T05:06:34;58.65;;;35.97;;
42702;SDS011;28341;52.064;4.920;2022-08-19T05:08:40;55.30;;;35.67;;
42702;SDS011;28341;52.064;4.920;2022-08-19T05:10:47;53.80;;;34.13;;
42702;SDS011;28341;52.064;4.920;2022-08-19T05:12:53;62.55;;;38.78;;
42702;SDS011;28341;52.064;4.920;2022-08-19T05:14:58;64.75;;;40.58;;
42702;SDS011;28341;52.064;4.920;2022-08-19T05:17:03;72.72;;;44.38;;
42702;SDS011;28341;52.064;4.920;2022-08-19T05:19:10;69.68;;;43.25;;
42702;SDS011;28341;52.064;4.920;2022-08-19T05:21:27;76.28;;;46.42;;
42702;SDS011;28341;52.064;4.920;2022-08-19T05:23:56;93.85;;;51.67;;
42702;SDS011;28341;52.064;4.920;2022-08-19T05:26:01;83.25;;;49.78;;
42702;SDS011;28341;52.064;4.920;2022-08-19T05:28:05;90.28;;;52.25;;
42702;SDS011;28341;52.064;4.920;2022-08-19T05:30:10;92.47;;;51.30;;
42702;SDS011;28341;52.064;4.920;2022-08-19T05:32:16;87.20;;;50.50;;
42702;SDS011;28341;52.064;4.920;2022-08-19T05:34:24;87.97;;;49.50;;
42702;SDS011;28341;52.064;4.920;2022-08-19T05:36:41;82.60;;;48.33;;
42702;SDS011;28341;52.064;4.920;2022-08-19T05:38:46;85.28;;;50.60;;
42702;SDS011;28341;52.064;4.920;2022-08-19T05:40:52;115.55;;;72.82;;
42702;SDS011;28341;52.064;4.920;2022-08-19T05:42:56;107.65;;;62.58;;
42702;SDS011;28341;52.064;4.920;2022-08-19T05:45:01;104.55;;;61.38;;
42702;SDS011;28341;52.064;4.920;2022-08-19T05:47:07;89.15;;;53.20;;
42702;SDS011;28341;52.064;4.920;2022-08-19T05:49:11;100.07;;;58.88;;
42702;SDS011;28341;52.064;4.920;2022-08-19T05:51:19;118.22;;;61.15;;
42702;SDS011;28341;52.064;4.920;2022-08-19T05:53:23;114.82;;;61.88;;
42702;SDS011;28341;52.064;4.920;2022-08-19T05:55:28;116.97;;;62.50;;
42702;SDS011;28341;52.064;4.920;2022-08-19T05:57:32;118.20;;;61.92;;
42702;SDS011;28341;52.064;4.920;2022-08-19T05:59:37;115.93;;;62.15;;
42702;SDS011;28341;52.064;4.920;2022-08-19T06:01:43;117.38;;;62.05;;
42702;SDS011;28341;52.064;4.920;2022-08-19T06:03:50;120.40;;;61.63;;
42702;SDS011;28341;52.064;4.920;2022-08-19T06:05:55;124.65;;;63.35;;
42702;SDS011;28341;52.064;4.920;2022-08-19T06:08:02;117.28;;;61.88;;
42702;SDS011;28341;52.064;4.920;2022-08-19T06:10:08;111.55;;;60.33;;
42702;SDS011;28341;52.064;4.920;2022-08-19T06:12:14;113.90;;;60.33;;
42702;SDS011;28341;52.064;4.920;2022-08-19T06:14:19;178.85;;;127.22;;
42702;SDS011;28341;52.064;4.920;2022-08-19T06:16:26;151.27;;;99.60;;
42702;SDS011;28341;52.064;4.920;2022-08-19T06:18:31;119.32;;;68.15;;
42702;SDS011;28341;52.064;4.920;2022-08-19T06:20:36;111.38;;;62.70;;
42702;SDS011;28341;52.064;4.920;2022-08-19T06:22:41;104.90;;;61.25;;
42702;SDS011;28341;52.064;4.920;2022-08-19T06:24:49;107.50;;;61.83;;
42702;SDS011;28341;52.064;4.920;2022-08-19T06:26:54;109.15;;;62.15;;
42702;SDS011;28341;52.064;4.920;2022-08-19T06:29:00;95.88;;;57.20;;
42702;SDS011;28341;52.064;4.920;2022-08-19T06:31:06;118.30;;;74.35;;
42702;SDS011;28341;52.064;4.920;2022-08-19T06:33:11;154.35;;;106.13;;
42702;SDS011;28341;52.064;4.920;2022-08-19T06:35:16;155.13;;;113.47;;
42702;SDS011;28341;52.064;4.920;2022-08-19T06:37:21;102.30;;;64.35;;
42702;SDS011;28341;52.064;4.920;2022-08-19T06:39:26;93.30;;;54.72;;
42702;SDS011;28341;52.064;4.920;2022-08-19T06:41:36;87.35;;;53.28;;
42702;SDS011;28341;52.064;4.920;2022-08-19T06:43:50;89.75;;;53.38;;
42702;SDS011;28341;52.064;4.920;2022-08-19T06:45:55;93.18;;;53.10;;
42702;SDS011;28341;52.064;4.920;2022-08-19T06:47:59;84.20;;;51.80;;
42702;SDS011;28341;52.064;4.920;2022-08-19T06:50:04;88.15;;;53.80;;
42702;SDS011;28341;52.064;4.920;2022-08-19T06:52:09;83.47;;;50.60;;
42702;SDS011;28341;52.064;4.920;2022-08-19T06:54:16;85.93;;;51.45;;
42702;SDS011;28341;52.064;4.920;2022-08-19T06:56:23;76.68;;;50.65;;
42702;SDS011;28341;52.064;4.920;2022-08-19T06:58:36;75.80;;;50.33;;
42702;SDS011;28341;52.064;4.920;2022-08-19T07:00:40;75.75;;;48.65;;
42702;SDS011;28341;52.064;4.920;2022-08-19T07:02:45;73.38;;;48.00;;
42702;SDS011;28341;52.064;4.920;2022-08-19T07:04:49;72.40;;;45.72;;
42702;SDS011;28341;52.064;4.920;2022-08-19T07:06:56;70.20;;;46.95;;
42702;SDS011;28341;52.064;4.920;2022-08-19T07:09:02;69.78;;;45.88;;
42702;SDS011;28341;52.064;4.920;2022-08-19T07:11:07;72.25;;;48.00;;
42702;SDS011;28341;52.064;4.920;2022-08-19T07:13:13;66.93;;;45.25;;
42702;SDS011;28341;52.064;4.920;2022-08-19T07:15:20;77.80;;;48.83;;
42702;SDS011;28341;52.064;4.920;2022-08-19T07:17:24;58.53;;;41.20;;
42702;SDS011;28341;52.064;4.920;2022-08-19T07:19:29;72.78;;;46.90;;
42702;SDS011;28341;52.064;4.920;2022-08-19T07:21:33;74.35;;;49.40;;
42702;SDS011;28341;52.064;4.920;2022-08-19T07:23:39;67.47;;;47.72;;
42702;SDS011;28341;52.064;4.920;2022-08-19T07:25:44;65.40;;;46.35;;
42702;SDS011;28341;52.064;4.920;2022-08-19T07:27:48;70.55;;;47.40;;
42702;SDS011;28341;52.064;4.920;2022-08-19T07:29:52;65.95;;;44.92;;
42702;SDS011;28341;52.064;4.920;2022-08-19T07:31:59;65.70;;;43.88;;
42702;SDS011;28341;52.064;4.920;2022-08-19T07:34:05;70.75;;;46.55;;
42702;SDS011;28341;52.064;4.920;2022-08-19T07:36:13;72.38;;;51.40;;
42702;SDS011;28341;52.064;4.920;2022-08-19T07:38:20;85.97;;;62.05;;
42702;SDS011;28341;52.064;4.920;2022-08-19T07:40:25;69.00;;;48.35;;
42702;SDS011;28341;52.064;4.920;2022-08-19T07:42:29;65.10;;;43.97;;
42702;SDS011;28341;52.064;4.920;2022-08-19T07:44:34;63.20;;;44.85;;
42702;SDS011;28341;52.064;4.920;2022-08-19T07:46:40;78.20;;;61.53;;
42702;SDS011;28341;52.064;4.920;2022-08-19T07:48:51;127.75;;;102.40;;
42702;SDS011;28341;52.064;4.920;2022-08-19T07:50:56;126.97;;;113.13;;
42702;SDS011;28341;52.064;4.920;2022-08-19T07:53:04;83.90;;;69.38;;
42702;SDS011;28341;52.064;4.920;2022-08-19T07:55:09;69.32;;;51.17;;
42702;SDS011;28341;52.064;4.920;2022-08-19T07:57:13;57.40;;;40.40;;
42702;SDS011;28341;52.064;4.920;2022-08-19T07:59:19;224.57;;;201.45;;
42702;SDS011;28341;52.064;4.920;2022-08-19T08:01:25;86.63;;;73.63;;
42702;SDS011;28341;52.064;4.920;2022-08-19T08:03:30;57.72;;;42.30;;
42702;SDS011;28341;52.064;4.920;2022-08-19T08:05:50;53.28;;;36.83;;
42702;SDS011;28341;52.064;4.920;2022-08-19T08:08:06;47.70;;;36.13;;
42702;SDS011;28341;52.064;4.920;2022-08-19T08:10:23;46.08;;;33.75;;
42702;SDS011;28341;52.064;4.920;2022-08-19T08:12:28;45.58;;;33.90;;
42702;SDS011;28341;52.064;4.920;2022-08-19T08:14:42;44.08;;;33.00;;
42702;SDS011;28341;52.064;4.920;2022-08-19T08:16:49;43.15;;;32.10;;
42702;SDS011;28341;52.064;4.920;2022-08-19T08:18:53;46.17;;;33.90;;
42702;SDS011;28341;52.064;4.920;2022-08-19T08:21:00;42.53;;;32.95;;
42702;SDS011;28341;52.064;4.920;2022-08-19T08:23:04;49.15;;;34.17;;
42702;SDS011;28341;52.064;4.920;2022-08-19T08:25:22;49.80;;;35.78;;
42702;SDS011;28341;52.064;4.920;2022-08-19T08:27:27;40.38;;;31.98;;
42702;SDS011;28341;52.064;4.920;2022-08-19T08:29:31;39.78;;;29.90;;
42702;SDS011;28341;52.064;4.920;2022-08-19T08:31:35;37.33;;;29.20;;
42702;SDS011;28341;52.064;4.920;2022-08-19T08:33:39;37.92;;;30.40;;
42702;SDS011;28341;52.064;4.920;2022-08-19T08:35:44;38.45;;;30.63;;
42702;SDS011;28341;52.064;4.920;2022-08-19T08:37:52;39.42;;;30.52;;
42702;SDS011;28341;52.064;4.920;2022-08-19T08:39:57;39.40;;;30.42;;
42702;SDS011;28341;52.064;4.920;2022-08-19T08:42:16;43.97;;;32.80;;
42702;SDS011;28341;52.064;4.920;2022-08-19T08:44:27;39.90;;;29.58;;
42702;SDS011;28341;52.064;4.920;2022-08-19T08:46:47;34.63;;;27.52;;
42702;SDS011;28341;52.064;4.920;2022-08-19T08:48:54;36.85;;;28.10;;
42702;SDS011;28341;52.064;4.920;2022-08-19T08:51:04;36.13;;;27.48;;
42702;SDS011;28341;52.064;4.920;2022-08-19T08:53:16;42.45;;;29.58;;
42702;SDS011;28341;52.064;4.920;2022-08-19T08:55:23;35.38;;;27.90;;
42702;SDS011;28341;52.064;4.920;2022-08-19T08:57:30;35.80;;;28.00;;
42702;SDS011;28341;52.064;4.920;2022-08-19T08:59:40;36.65;;;27.83;;
42702;SDS011;28341;52.064;4.920;2022-08-19T09:01:45;36.70;;;28.92;;
42702;SDS011;28341;52.064;4.920;2022-08-19T09:03:49;38.85;;;30.05;;
42702;SDS011;28341;52.064;4.920;2022-08-19T09:05:55;49.05;;;36.58;;
42702;SDS011;28341;52.064;4.920;2022-08-19T09:08:07;52.58;;;40.65;;
42702;SDS011;28341;52.064;4.920;2022-08-19T09:10:19;38.95;;;29.85;;
42702;SDS011;28341;52.064;4.920;2022-08-19T09:12:31;32.97;;;26.27;;
42702;SDS011;28341;52.064;4.920;2022-08-19T09:14:41;38.50;;;26.35;;
42702;SDS011;28341;52.064;4.920;2022-08-19T09:16:50;35.40;;;24.55;;
42702;SDS011;28341;52.064;4.920;2022-08-19T09:18:55;34.53;;;22.63;;
42702;SDS011;28341;52.064;4.920;2022-08-19T09:21:02;23.40;;;19.10;;
42702;SDS011;28341;52.064;4.920;2022-08-19T09:23:07;23.23;;;16.88;;
42702;SDS011;28341;52.064;4.920;2022-08-19T09:25:13;22.92;;;17.10;;
42702;SDS011;28341;52.064;4.920;2022-08-19T09:27:22;24.45;;;18.10;;
42702;SDS011;28341;52.064;4.920;2022-08-19T09:29:28;21.50;;;17.27;;
42702;SDS011;28341;52.064;4.920;2022-08-19T09:31:32;20.38;;;15.75;;
42702;SDS011;28341;52.064;4.920;2022-08-19T09:33:36;19.00;;;14.57;;
42702;SDS011;28341;52.064;4.920;2022-08-19T09:35:43;19.15;;;15.20;;
42702;SDS011;28341;52.064;4.920;2022-08-19T09:37:47;21.13;;;15.95;;
42702;SDS011;28341;52.064;4.920;2022-08-19T09:39:53;18.58;;;16.33;;
42702;SDS011;28341;52.064;4.920;2022-08-19T09:42:00;23.70;;;18.88;;
42702;SDS011;28341;52.064;4.920;2022-08-19T09:44:05;21.75;;;17.88;;
42702;SDS011;28341;52.064;4.920;2022-08-19T09:46:09;22.67;;;18.58;;
42702;SDS011;28341;52.064;4.920;2022-08-19T09:48:13;23.60;;;17.85;;
42702;SDS011;28341;52.064;4.920;2022-08-19T09:50:17;26.02;;;20.52;;
42702;SDS011;28341;52.064;4.920;2022-08-19T09:52:21;19.25;;;16.85;;
42702;SDS011;28341;52.064;4.920;2022-08-19T09:54:26;25.33;;;20.13;;
42702;SDS011;28341;52.064;4.920;2022-08-19T09:56:31;23.67;;;18.95;;
42702;SDS011;28341;52.064;4.920;2022-08-19T09:58:38;22.83;;;18.10;;
42702;SDS011;28341;52.064;4.920;2022-08-19T10:00:42;22.90;;;18.48;;
42702;SDS011;28341;52.064;4.920;2022-08-19T10:02:47;23.70;;;18.55;;
42702;SDS011;28341;52.064;4.920;2022-08-19T10:04:51;23.70;;;19.58;;
42702;SDS011;28341;52.064;4.920;2022-08-19T10:07:08;25.08;;;19.75;;
42702;SDS011;28341;52.064;4.920;2022-08-19T10:09:12;25.02;;;19.63;;
42702;SDS011;28341;52.064;4.920;2022-08-19T10:11:17;21.40;;;18.23;;
42702;SDS011;28341;52.064;4.920;2022-08-19T10:13:24;23.70;;;19.10;;
42702;SDS011;28341;52.064;4.920;2022-08-19T10:15:35;18.67;;;16.15;;
42702;SDS011;28341;52.064;4.920;2022-08-19T10:17:39;24.90;;;19.80;;
42702;SDS011;28341;52.064;4.920;2022-08-19T10:19:44;28.73;;;19.33;;
42702;SDS011;28341;52.064;4.920;2022-08-19T10:21:48;21.60;;;19.17;;
42702;SDS011;28341;52.064;4.920;2022-08-19T10:23:54;77.30;;;69.68;;
42702;SDS011;28341;52.064;4.920;2022-08-19T10:26:00;22.30;;;16.17;;
42702;SDS011;28341;52.064;4.920;2022-08-19T10:28:06;21.23;;;16.63;;
42702;SDS011;28341;52.064;4.920;2022-08-19T10:30:12;58.58;;;52.40;;
42702;SDS011;28341;52.064;4.920;2022-08-19T10:32:20;360.02;;;324.90;;
42702;SDS011;28341;52.064;4.920;2022-08-19T10:34:25;22.88;;;17.80;;
42702;SDS011;28341;52.064;4.920;2022-08-19T10:36:30;23.88;;;15.45;;
42702;SDS011;28341;52.064;4.920;2022-08-19T10:38:36;16.73;;;13.48;;
42702;SDS011;28341;52.064;4.920;2022-08-19T10:40:40;19.40;;;14.02;;
42702;SDS011;28341;52.064;4.920;2022-08-19T10:42:45;16.13;;;13.98;;
42702;SDS011;28341;52.064;4.920;2022-08-19T10:44:49;15.13;;;11.82;;
42702;SDS011;28341;52.064;4.920;2022-08-19T10:46:53;20.05;;;12.60;;
42702;SDS011;28341;52.064;4.920;2022-08-19T10:49:02;18.13;;;13.27;;
42702;SDS011;28341;52.064;4.920;2022-08-19T10:51:07;16.38;;;11.85;;
42702;SDS011;28341;52.064;4.920;2022-08-19T10:53:24;14.68;;;10.85;;
42702;SDS011;28341;52.064;4.920;2022-08-19T10:55:28;14.57;;;9.57;;
42702;SDS011;28341;52.064;4.920;2022-08-19T10:57:45;12.95;;;10.05;;
42702;SDS011;28341;52.064;4.920;2022-08-19T10:59:49;16.30;;;11.48;;
42702;SDS011;28341;52.064;4.920;2022-08-19T11:01:53;15.52;;;10.57;;
42702;SDS011;28341;52.064;4.920;2022-08-19T11:04:04;13.93;;;10.13;;
42702;SDS011;28341;52.064;4.920;2022-08-19T11:06:11;17.30;;;11.88;;
42702;SDS011;28341;52.064;4.920;2022-08-19T11:08:15;13.90;;;11.38;;
42702;SDS011;28341;52.064;4.920;2022-08-19T11:10:19;14.45;;;10.25;;
42702;SDS011;28341;52.064;4.920;2022-08-19T11:12:23;13.80;;;8.90;;
42702;SDS011;28341;52.064;4.920;2022-08-19T11:14:28;16.33;;;9.32;;
42702;SDS011;28341;52.064;4.920;2022-08-19T11:16:33;17.65;;;9.73;;
42702;SDS011;28341;52.064;4.920;2022-08-19T11:18:39;11.75;;;8.50;;
42702;SDS011;28341;52.064;4.920;2022-08-19T11:20:49;13.98;;;9.23;;
42702;SDS011;28341;52.064;4.920;2022-08-19T11:22:53;15.30;;;9.82;;
42702;SDS011;28341;52.064;4.920;2022-08-19T11:24:57;26.38;;;22.05;;
42702;SDS011;28341;52.064;4.920;2022-08-19T11:27:03;17.45;;;10.35;;
42702;SDS011;28341;52.064;4.920;2022-08-19T11:29:11;13.27;;;8.82;;
42702;SDS011;28341;52.064;4.920;2022-08-19T11:31:17;13.50;;;7.70;;
42702;SDS011;28341;52.064;4.920;2022-08-19T11:33:23;13.13;;;8.43;;
42702;SDS011;28341;52.064;4.920;2022-08-19T11:35:29;19.08;;;9.27;;
42702;SDS011;28341;52.064;4.920;2022-08-19T11:37:36;16.58;;;8.43;;
42702;SDS011;28341;52.064;4.920;2022-08-19T11:39:43;10.85;;;7.65;;
42702;SDS011;28341;52.064;4.920;2022-08-19T11:41:48;17.73;;;8.57;;
42702;SDS011;28341;52.064;4.920;2022-08-19T11:43:52;49.97;;;44.83;;
42702;SDS011;28341;52.064;4.920;2022-08-19T11:45:57;39.65;;;32.35;;
42702;SDS011;28341;52.064;4.920;2022-08-19T11:48:02;10.48;;;7.22;;
42702;SDS011;28341;52.064;4.920;2022-08-19T11:50:07;16.15;;;6.78;;
42702;SDS011;28341;52.064;4.920;2022-08-19T11:52:13;8.90;;;6.20;;
42702;SDS011;28341;52.064;4.920;2022-08-19T11:54:20;9.27;;;6.55;;
42702;SDS011;28341;52.064;4.920;2022-08-19T11:56:26;10.45;;;6.70;;
42702;SDS011;28341;52.064;4.920;2022-08-19T11:58:31;7.82;;;5.97;;
42702;SDS011;28341;52.064;4.920;2022-08-19T12:00:37;8.65;;;5.10;;
42702;SDS011;28341;52.064;4.920;2022-08-19T12:02:42;10.82;;;6.57;;
42702;SDS011;28341;52.064;4.920;2022-08-19T12:04:46;14.73;;;7.00;;
42702;SDS011;28341;52.064;4.920;2022-08-19T12:06:50;12.52;;;6.55;;
42702;SDS011;28341;52.064;4.920;2022-08-19T12:08:56;10.95;;;6.63;;
42702;SDS011;28341;52.064;4.920;2022-08-19T12:11:03;12.35;;;6.28;;
42702;SDS011;28341;52.064;4.920;2022-08-19T12:13:08;13.13;;;6.78;;
42702;SDS011;28341;52.064;4.920;2022-08-19T12:15:14;12.50;;;5.43;;
42702;SDS011;28341;52.064;4.920;2022-08-19T12:17:18;10.35;;;5.65;;
42702;SDS011;28341;52.064;4.920;2022-08-19T12:19:23;6.88;;;5.30;;